createdAt,value
2022-09-28T00:00:11.870Z,97581.31
2022-09-28T00:02:39.162Z,97581.38
2022-09-28T00:05:05.757Z,97576.16
2022-09-28T00:07:32.208Z,97575.75
2022-09-28T00:09:58.564Z,97580.16
2022-09-28T00:12:24.998Z,97576.94
2022-09-28T00:14:51.406Z,97570.53
2022-09-28T00:17:22.203Z,97568.94
2022-09-28T00:19:48.686Z,97565.50
2022-09-28T00:22:15.208Z,97569.16
2022-09-28T00:24:41.573Z,97559.09
2022-09-28T00:27:09.406Z,97559.09
2022-09-28T00:29:36.707Z,97561.78
2022-09-28T00:32:07.881Z,97565.06
2022-09-28T00:34:39.129Z,97552.69
2022-09-28T00:37:06.493Z,97549.66
2022-09-28T00:39:33.028Z,97553.09
2022-09-28T00:41:59.805Z,97556.50
2022-09-28T00:44:26.179Z,97555.00
2022-09-28T00:47:02.028Z,97544.50
2022-09-28T00:49:41.872Z,97550.84
2022-09-28T00:52:09.717Z,97547.38
2022-09-28T00:54:36.735Z,97543.88
2022-09-28T00:57:03.709Z,97542.03
2022-09-28T00:59:31.492Z,97534.44
2022-09-28T01:01:57.912Z,97543.41
2022-09-28T01:04:28.033Z,97539.41
2022-09-28T01:06:57.195Z,97542.31
2022-09-28T01:09:24.839Z,97540.81
2022-09-28T01:11:51.511Z,97537.47
2022-09-28T01:14:19.165Z,97533.94
2022-09-28T01:17:05.338Z,97528.97
2022-09-28T01:19:31.668Z,97526.72
2022-09-28T01:22:16.122Z,97527.88
2022-09-28T01:24:45.418Z,97529.69
2022-09-28T01:27:29.697Z,97520.25
2022-09-28T01:30:02.143Z,97519.59
2022-09-28T01:32:35.535Z,97524.19
2022-09-28T01:35:18.468Z,97517.09
2022-09-28T01:37:52.356Z,97509.69
2022-09-28T01:40:21.597Z,97517.03
2022-09-28T01:42:50.357Z,97509.19
2022-09-28T01:45:23.634Z,97512.34
2022-09-28T01:47:50.682Z,97509.19
2022-09-28T01:50:20.967Z,97507.88
2022-09-28T01:52:51.766Z,97508.34
2022-09-28T01:55:18.181Z,97503.31
2022-09-28T01:57:55.416Z,97515.22
2022-09-28T02:00:23.930Z,97504.00
2022-09-28T02:03:11.431Z,97502.47
2022-09-28T02:05:39.697Z,97500.75
2022-09-28T02:08:11.751Z,97496.59
2022-09-28T02:10:43.784Z,97495.72
2022-09-28T02:13:13.775Z,97496.75
2022-09-28T02:15:40.105Z,97492.19
2022-09-28T02:18:06.598Z,97499.25
2022-09-28T02:20:34.555Z,97497.63
2022-09-28T02:23:03.145Z,97497.63
2022-09-28T02:25:40.572Z,97495.06
2022-09-28T02:28:08.470Z,97494.03
2022-09-28T02:30:36.695Z,97493.25
2022-09-28T02:33:11.026Z,97487.69
2022-09-28T02:35:38.096Z,97492.97
2022-09-28T02:38:04.601Z,97491.34
2022-09-28T02:40:35.355Z,97494.19
2022-09-28T02:43:04.869Z,97486.28
2022-09-28T02:45:37.344Z,97482.97
2022-09-28T02:48:13.667Z,97486.69
2022-09-28T02:50:48.192Z,97486.03
2022-09-28T02:53:33.034Z,97481.72
2022-09-28T02:56:03.074Z,97475.72
2022-09-28T02:58:35.248Z,97477.63
2022-09-28T03:01:20.689Z,97475.16
2022-09-28T03:03:50.615Z,97472.00
2022-09-28T03:06:20.082Z,97461.81
2022-09-28T03:09:07.879Z,97462.22
2022-09-28T03:11:40.648Z,97462.50
2022-09-28T03:14:07.352Z,97457.34
2022-09-28T03:16:33.838Z,97459.34
2022-09-28T03:19:00.571Z,97456.69
2022-09-28T03:21:26.937Z,97459.47
2022-09-28T03:23:53.362Z,97449.72
2022-09-28T03:26:19.909Z,97453.47
2022-09-28T03:28:46.491Z,97451.94
2022-09-28T03:31:12.983Z,97449.44
2022-09-28T03:33:39.497Z,97453.25
2022-09-28T03:36:06.007Z,97450.09
2022-09-28T03:38:32.424Z,97445.13
2022-09-28T03:41:00.038Z,97447.34
2022-09-28T03:43:27.134Z,97444.94
2022-09-28T03:45:54.074Z,97449.69
2022-09-28T03:48:32.732Z,97439.41
2022-09-28T03:51:01.239Z,97443.28
2022-09-28T03:53:29.631Z,97449.59
2022-09-28T03:55:56.425Z,97447.88
2022-09-28T03:58:23.116Z,97443.28
2022-09-28T04:00:50.188Z,97447.56
2022-09-28T04:03:16.634Z,97442.91
2022-09-28T04:05:50.059Z,97445.31
2022-09-28T04:08:16.534Z,97444.94
2022-09-28T04:10:43.009Z,97441.13
2022-09-28T04:13:09.364Z,97440.75
2022-09-28T04:15:37.950Z,97436.97
2022-09-28T04:18:05.593Z,97436.50
2022-09-28T04:20:33.268Z,97424.59
2022-09-28T04:22:59.651Z,97418.88
2022-09-28T04:25:26.088Z,97414.09
2022-09-28T04:28:10.830Z,97415.31
2022-09-28T04:30:37.431Z,97411.59
2022-09-28T04:33:03.808Z,97419.22
2022-09-28T04:35:30.188Z,97408.06
2022-09-28T04:37:56.748Z,97407.09
2022-09-28T04:40:23.190Z,97413.22
2022-09-28T04:42:53.218Z,97411.19
2022-09-28T04:45:19.702Z,97392.50
2022-09-28T04:47:46.099Z,97382.69
2022-09-28T04:50:12.565Z,97375.63
2022-09-28T04:52:38.996Z,97381.91
2022-09-28T04:55:05.962Z,97375.72
2022-09-28T04:57:35.606Z,97375.84
2022-09-28T05:00:03.937Z,97367.91
2022-09-28T05:02:30.569Z,97358.28
2022-09-28T05:04:58.860Z,97355.63
2022-09-28T05:07:26.299Z,97356.69
2022-09-28T05:09:52.905Z,97359.56
2022-09-28T05:12:19.326Z,97351.63
2022-09-28T05:14:45.695Z,97343.63
2022-09-28T05:17:12.050Z,97342.88
2022-09-28T05:19:38.471Z,97344.69
2022-09-28T05:22:06.032Z,97347.44
2022-09-28T05:24:32.365Z,97345.66
2022-09-28T05:26:58.729Z,97355.47
2022-09-28T05:29:27.170Z,97346.69
2022-09-28T05:31:56.507Z,97358.13
2022-09-28T05:34:22.890Z,97350.13
2022-09-28T05:36:49.193Z,97354.50
2022-09-28T05:39:15.683Z,97353.44
2022-09-28T05:41:42.074Z,97344.59
2022-09-28T05:44:08.416Z,97335.63
2022-09-28T05:46:34.725Z,97335.44
2022-09-28T05:49:01.167Z,97335.31
2022-09-28T05:51:27.489Z,97332.47
2022-09-28T05:53:54.443Z,97334.94
2022-09-28T05:56:20.933Z,97332.06
2022-09-28T05:58:47.316Z,97321.16
2022-09-28T06:01:14.850Z,97315.66
2022-09-28T06:03:41.314Z,97317.16
2022-09-28T06:06:07.640Z,97322.31
2022-09-28T06:08:34.075Z,97309.69
2022-09-28T06:11:01.293Z,97302.22
2022-09-28T06:13:28.660Z,97297.34
2022-09-28T06:15:54.994Z,97292.53
2022-09-28T06:18:21.347Z,97289.66
2022-09-28T06:20:47.666Z,97300.03
2022-09-28T06:23:14.307Z,97287.31
2022-09-28T06:25:40.645Z,97285.31
2022-09-28T06:28:09.469Z,97286.59
2022-09-28T06:30:38.086Z,97265.22
2022-09-28T06:33:05.151Z,97273.66
2022-09-28T06:35:32.079Z,97267.34
2022-09-28T06:37:59.223Z,97252.81
2022-09-28T06:40:26.130Z,97255.19
2022-09-28T06:42:56.012Z,97261.59
2022-09-28T06:45:25.386Z,97264.16
2022-09-28T06:47:55.853Z,97273.69
2022-09-28T06:50:22.615Z,97279.34
2022-09-28T06:52:52.700Z,97274.31
2022-09-28T06:55:19.240Z,97268.41
2022-09-28T06:57:45.627Z,97272.38
2022-09-28T07:00:12.416Z,97282.66
2022-09-28T07:02:39.067Z,97264.25
2022-09-28T07:05:08.178Z,97265.72
2022-09-28T07:07:34.758Z,97277.81
2022-09-28T07:10:01.387Z,97270.41
2022-09-28T07:12:27.915Z,97269.34
2022-09-28T07:14:57.442Z,97264.50
2022-09-28T07:17:24.558Z,97265.25
2022-09-28T07:19:54.323Z,97271.22
2022-09-28T07:22:33.176Z,97278.97
2022-09-28T07:25:07.195Z,97289.53
2022-09-28T07:27:34.767Z,97276.91
2022-09-28T07:30:01.338Z,97282.91
2022-09-28T07:32:28.428Z,97302.41
2022-09-28T07:34:58.856Z,97307.94
2022-09-28T07:37:28.850Z,97312.03
2022-09-28T07:40:13.875Z,97305.78
2022-09-28T07:42:40.409Z,97296.16
2022-09-28T07:45:07.272Z,97299.81
2022-09-28T07:47:35.277Z,97288.13
2022-09-28T07:50:01.994Z,97283.88
2022-09-28T07:52:29.025Z,97284.63
2022-09-28T07:54:56.307Z,97297.03
2022-09-28T07:57:22.904Z,97295.22
2022-09-28T07:59:49.821Z,97292.66
2022-09-28T08:02:20.347Z,97291.56
2022-09-28T08:04:50.301Z,97284.50
2022-09-28T08:07:21.562Z,97283.41
2022-09-28T08:09:50.069Z,97293.16
2022-09-28T08:12:18.387Z,97289.53
2022-09-28T08:14:44.732Z,97300.00
2022-09-28T08:17:11.160Z,97306.81
2022-09-28T08:19:56.079Z,97299.78
2022-09-28T08:22:22.678Z,97301.38
2022-09-28T08:24:49.106Z,97295.06
2022-09-28T08:27:16.727Z,97307.38
2022-09-28T08:29:43.207Z,97300.06
2022-09-28T08:32:10.236Z,97304.34
2022-09-28T08:34:37.971Z,97299.59
2022-09-28T08:37:05.067Z,97297.56
2022-09-28T08:39:31.792Z,97308.91
2022-09-28T08:41:58.614Z,97304.31
2022-09-28T08:44:26.921Z,97318.19
2022-09-28T08:46:58.700Z,97307.59
2022-09-28T08:49:44.111Z,97312.84
2022-09-28T08:52:17.219Z,97310.16
2022-09-28T08:54:43.530Z,97310.91
2022-09-28T08:57:15.956Z,97310.84
2022-09-28T08:59:45.560Z,97296.59
2022-09-28T09:02:18.183Z,97297.44
2022-09-28T09:04:45.793Z,97291.56
2022-09-28T09:07:30.619Z,97304.97
2022-09-28T09:10:15.676Z,97301.00
2022-09-28T09:12:45.066Z,97301.81
2022-09-28T09:15:30.300Z,97302.63
2022-09-28T09:18:03.662Z,97317.63
2022-09-28T09:20:37.719Z,97311.75
2022-09-28T09:23:17.688Z,97311.88
2022-09-28T09:25:46.772Z,97307.50
2022-09-28T09:28:32.091Z,97306.41
2022-09-28T09:31:21.939Z,97295.03
2022-09-28T09:33:57.406Z,97283.88
2022-09-28T09:36:23.832Z,97294.66
2022-09-28T09:39:05.534Z,97293.31
2022-09-28T09:41:35.338Z,97289.81
2022-09-28T09:44:07.723Z,97281.00
2022-09-28T09:46:37.933Z,97289.53
2022-09-28T09:49:24.537Z,97288.53
2022-09-28T09:52:01.055Z,97289.75
2022-09-28T09:54:34.338Z,97286.44
2022-09-28T09:57:13.014Z,97288.38
2022-09-28T09:59:41.755Z,97293.97
2022-09-28T10:02:15.769Z,97292.25
2022-09-28T10:04:46.667Z,97292.09
2022-09-28T10:07:20.785Z,97302.59
2022-09-28T10:09:48.805Z,97295.13
2022-09-28T10:12:18.865Z,97297.91
2022-09-28T10:14:46.453Z,97295.31
2022-09-28T10:17:17.342Z,97301.13
2022-09-28T10:19:43.841Z,97301.44
2022-09-28T10:22:13.567Z,97306.34
2022-09-28T10:24:47.412Z,97307.47
2022-09-28T10:27:15.228Z,97305.13
2022-09-28T10:29:45.462Z,97310.50
2022-09-28T10:32:22.211Z,97300.25
2022-09-28T10:34:50.936Z,97291.56
2022-09-28T10:37:18.440Z,97292.75
2022-09-28T10:39:53.444Z,97288.25
2022-09-28T10:42:22.156Z,97287.50
2022-09-28T10:44:56.339Z,97284.97
2022-09-28T10:47:24.321Z,97283.00
2022-09-28T10:49:52.312Z,97283.66
2022-09-28T10:52:37.373Z,97272.19
2022-09-28T10:55:24.013Z,97273.03
2022-09-28T10:57:50.496Z,97272.94
2022-09-28T11:00:35.418Z,97269.72
2022-09-28T11:03:02.218Z,97268.13
2022-09-28T11:05:29.029Z,97264.63
2022-09-28T11:07:56.967Z,97259.44
2022-09-28T11:10:26.406Z,97254.44
2022-09-28T11:12:53.934Z,97254.31
2022-09-28T11:15:22.392Z,97254.31
2022-09-28T11:17:48.767Z,97249.31
2022-09-28T11:20:28.439Z,97265.25
2022-09-28T11:22:57.212Z,97267.06
2022-09-28T11:25:24.419Z,97255.41
2022-09-28T11:27:50.732Z,97244.38
2022-09-28T11:30:22.587Z,97235.72
2022-09-28T11:32:49.540Z,97236.16
2022-09-28T11:35:32.125Z,97238.59
2022-09-28T11:38:15.490Z,97246.41
2022-09-28T11:40:44.884Z,97247.25
2022-09-28T11:43:23.192Z,97249.38
2022-09-28T11:45:54.795Z,97250.06
2022-09-28T11:48:27.185Z,97251.38
2022-09-28T11:50:57.353Z,97262.75
2022-09-28T11:53:35.023Z,97258.56
2022-09-28T11:56:21.477Z,97253.63
2022-09-28T11:58:55.611Z,97249.59
2022-09-28T12:01:25.996Z,97246.94
2022-09-28T12:03:55.747Z,97243.69
2022-09-28T12:06:27.395Z,97242.94
2022-09-28T12:08:57.108Z,97253.31
2022-09-28T12:11:50.263Z,97248.44
2022-09-28T12:14:30.955Z,97254.78
2022-09-28T12:17:07.668Z,97255.03
2022-09-28T12:19:45.979Z,97256.84
2022-09-28T12:22:15.150Z,97261.63
2022-09-28T12:24:47.849Z,97264.53
2022-09-28T12:27:38.840Z,97268.44
2022-09-28T12:30:12.136Z,97261.72
2022-09-28T12:32:41.838Z,97271.59
2022-09-28T12:35:16.373Z,97278.41
2022-09-28T12:37:55.177Z,97272.72
2022-09-28T12:40:22.283Z,97281.50
2022-09-28T12:42:57.937Z,97290.69
2022-09-28T12:45:35.563Z,97287.22
2022-09-28T12:48:36.386Z,97294.66
2022-09-28T12:51:09.348Z,97292.84
2022-09-28T12:53:54.270Z,97290.75
2022-09-28T12:56:39.504Z,97299.22
2022-09-28T12:59:19.495Z,97304.09
2022-09-28T13:01:49.167Z,97302.63
2022-09-28T13:04:15.607Z,97308.44
2022-09-28T13:06:47.226Z,97317.00
2022-09-28T13:09:20.298Z,97308.56
2022-09-28T13:11:49.581Z,97314.13
2022-09-28T13:14:19.060Z,97319.16
2022-09-28T13:16:55.172Z,97321.94
2022-09-28T13:19:43.056Z,97327.78
2022-09-28T13:22:18.496Z,97331.31
2022-09-28T13:24:46.462Z,97335.59
2022-09-28T13:27:33.121Z,97328.16
2022-09-28T13:30:01.225Z,97337.91
2022-09-28T13:32:29.942Z,97345.59
2022-09-28T13:34:56.639Z,97342.97
2022-09-28T13:37:24.910Z,97354.59
2022-09-28T13:39:56.592Z,97347.97
2022-09-28T13:42:25.221Z,97347.84
2022-09-28T13:45:10.032Z,97348.94
2022-09-28T13:47:39.449Z,97356.16
2022-09-28T13:50:17.811Z,97368.06
2022-09-28T13:52:50.398Z,97369.19
2022-09-28T13:55:28.849Z,97368.16
2022-09-28T13:57:59.336Z,97362.31
2022-09-28T14:00:28.512Z,97370.94
2022-09-28T14:03:04.200Z,97375.72
2022-09-28T14:05:41.250Z,97382.31
2022-09-28T14:08:46.138Z,97380.78
2022-09-28T14:11:40.266Z,97375.22
2022-09-28T14:14:11.889Z,97388.47
2022-09-28T14:16:39.116Z,97396.97
2022-09-28T14:19:15.168Z,97396.22
2022-09-28T14:21:47.799Z,97403.94
2022-09-28T14:24:27.424Z,97405.31
2022-09-28T14:26:57.920Z,97406.50
2022-09-28T14:29:28.587Z,97410.72
2022-09-28T14:31:55.998Z,97415.75
2022-09-28T14:34:34.360Z,97424.06
2022-09-28T14:37:20.289Z,97424.19
2022-09-28T14:40:05.705Z,97423.41
2022-09-28T14:42:32.420Z,97429.41
2022-09-28T14:45:06.915Z,97426.09
2022-09-28T14:47:33.948Z,97427.31
2022-09-28T14:50:01.118Z,97418.13
2022-09-28T14:52:42.736Z,97418.69
2022-09-28T14:55:13.670Z,97421.00
2022-09-28T14:57:41.213Z,97419.53
2022-09-28T15:00:08.999Z,97428.72
2022-09-28T15:02:38.429Z,97423.16
2022-09-28T15:05:10.952Z,97420.09
2022-09-28T15:07:48.084Z,97430.44
2022-09-28T15:10:22.069Z,97428.16
2022-09-28T15:12:52.816Z,97434.47
2022-09-28T15:15:25.508Z,97431.19
2022-09-28T15:17:56.052Z,97423.28
2022-09-28T15:20:23.862Z,97435.28
2022-09-28T15:22:52.955Z,97442.25
2022-09-28T15:25:21.018Z,97440.88
2022-09-28T15:27:52.848Z,97442.31
2022-09-28T15:30:19.639Z,97441.16
2022-09-28T15:32:46.024Z,97449.38
2022-09-28T15:35:17.166Z,97456.97
2022-09-28T15:37:44.863Z,97452.69
2022-09-28T15:40:16.725Z,97457.41
2022-09-28T15:42:45.236Z,97460.34
2022-09-28T15:45:14.658Z,97468.56
2022-09-28T15:47:41.851Z,97462.94
2022-09-28T15:50:20.165Z,97471.94
2022-09-28T15:52:53.605Z,97479.00
2022-09-28T15:55:20.163Z,97480.19
2022-09-28T15:57:47.450Z,97484.28
2022-09-28T16:00:23.101Z,97479.00
2022-09-28T16:03:05.471Z,97479.53
2022-09-28T16:05:37.882Z,97485.44
2022-09-28T16:08:05.031Z,97486.63
2022-09-28T16:10:33.632Z,97493.56
2022-09-28T16:13:09.524Z,97503.22
2022-09-28T16:15:37.359Z,97503.31
2022-09-28T16:18:12.781Z,97508.03
2022-09-28T16:20:40.958Z,97503.97
2022-09-28T16:23:16.342Z,97515.09
2022-09-28T16:25:52.076Z,97508.44
2022-09-28T16:28:25.908Z,97518.66
2022-09-28T16:31:03.070Z,97516.94
2022-09-28T16:33:31.017Z,97519.91
2022-09-28T16:36:02.062Z,97524.09
2022-09-28T16:38:28.513Z,97527.97
2022-09-28T16:40:55.012Z,97529.44
2022-09-28T16:43:27.107Z,97533.00
2022-09-28T16:45:58.446Z,97533.19
2022-09-28T16:48:29.285Z,97535.88
2022-09-28T16:50:56.092Z,97540.06
2022-09-28T16:53:41.398Z,97535.16
2022-09-28T16:56:08.336Z,97536.63
2022-09-28T16:58:35.754Z,97542.84
2022-09-28T17:01:02.351Z,97543.03
2022-09-28T17:03:29.275Z,97549.66
2022-09-28T17:05:56.191Z,97545.84
2022-09-28T17:08:23.997Z,97548.28
2022-09-28T17:11:16.987Z,97551.19
2022-09-28T17:13:45.959Z,97552.97
2022-09-28T17:16:14.301Z,97555.66
2022-09-28T17:18:41.225Z,97553.41
2022-09-28T17:21:11.250Z,97558.97
2022-09-28T17:23:37.680Z,97550.38
2022-09-28T17:26:05.047Z,97562.72
2022-09-28T17:28:32.693Z,97559.88
2022-09-28T17:30:59.176Z,97563.63
2022-09-28T17:33:25.665Z,97568.41
2022-09-28T17:35:53.485Z,97568.41
2022-09-28T17:38:19.921Z,97583.72
2022-09-28T17:40:48.165Z,97581.13
2022-09-28T17:43:14.702Z,97585.22
2022-09-28T17:45:41.166Z,97588.13
2022-09-28T17:48:13.025Z,97584.97
2022-09-28T17:50:42.210Z,97591.28
2022-09-28T17:53:12.573Z,97598.47
2022-09-28T17:55:39.504Z,97593.88
2022-09-28T17:58:14.313Z,97606.47
2022-09-28T18:00:40.896Z,97599.53
2022-09-28T18:03:12.957Z,97607.44
2022-09-28T18:05:39.405Z,97609.16
2022-09-28T18:08:05.901Z,97616.31
2022-09-28T18:10:32.336Z,97611.94
2022-09-28T18:12:58.779Z,97608.38
2022-09-28T18:15:25.218Z,97613.97
2022-09-28T18:17:51.671Z,97607.53
2022-09-28T18:20:18.433Z,97609.53
2022-09-28T18:22:44.877Z,97611.44
2022-09-28T18:25:11.340Z,97606.47
2022-09-28T18:27:37.738Z,97613.75
2022-09-28T18:30:04.916Z,97613.75
2022-09-28T18:32:33.289Z,97614.81
2022-09-28T18:34:59.625Z,97623.78
2022-09-28T18:37:26.066Z,97626.59
2022-09-28T18:39:52.505Z,97620.63
2022-09-28T18:42:19.378Z,97631.22
2022-09-28T18:44:45.721Z,97630.66
2022-09-28T18:47:14.443Z,97632.47
2022-09-28T18:49:44.744Z,97624.66
2022-09-28T18:52:13.052Z,97630.97
2022-09-28T18:54:40.228Z,97638.22
2022-09-28T18:57:06.573Z,97626.84
2022-09-28T18:59:33.021Z,97635.84
2022-09-28T19:02:01.723Z,97635.94
2022-09-28T19:04:28.376Z,97640.56
2022-09-28T19:06:54.928Z,97638.81
2022-09-28T19:09:23.009Z,97633.56
2022-09-28T19:11:49.504Z,97631.00
2022-09-28T19:14:16.161Z,97635.78
2022-09-28T19:16:43.742Z,97632.56
2022-09-28T19:19:14.366Z,97636.38
2022-09-28T19:21:43.193Z,97633.22
2022-09-28T19:24:12.259Z,97636.13
2022-09-28T19:26:39.111Z,97626.75
2022-09-28T19:29:05.474Z,97637.94
2022-09-28T19:31:32.528Z,97637.56
2022-09-28T19:33:58.917Z,97635.38
2022-09-28T19:36:25.881Z,97633.16
2022-09-28T19:38:52.780Z,97641.66
2022-09-28T19:41:39.558Z,97637.63
2022-09-28T19:44:24.409Z,97642.78
2022-09-28T19:46:52.640Z,97640.47
2022-09-28T19:49:19.631Z,97643.63
2022-09-28T19:52:11.706Z,97642.28
2022-09-28T19:54:36.808Z,97643.69
2022-09-28T19:57:08.854Z,97646.03
2022-09-28T19:59:38.783Z,97648.22
2022-09-28T20:02:06.019Z,97646.97
2022-09-28T20:04:32.494Z,97653.41
2022-09-28T20:06:59.038Z,97649.41
2022-09-28T20:09:25.450Z,97653.38
2022-09-28T20:11:53.102Z,97660.59
2022-09-28T20:14:19.643Z,97652.09
2022-09-28T20:16:46.396Z,97659.22
2022-09-28T20:19:12.944Z,97660.50
2022-09-28T20:21:39.385Z,97662.56
2022-09-28T20:24:05.898Z,97665.59
2022-09-28T20:26:37.453Z,97666.72
2022-09-28T20:29:05.020Z,97674.03
2022-09-28T20:31:31.530Z,97677.00
2022-09-28T20:33:58.018Z,97674.69
2022-09-28T20:36:25.137Z,97679.31
2022-09-28T20:38:52.723Z,97682.22
2022-09-28T20:41:20.280Z,97689.47
2022-09-28T20:43:46.790Z,97683.53
2022-09-28T20:46:14.121Z,97683.78
2022-09-28T20:48:40.804Z,97689.25
2022-09-28T20:51:17.668Z,97693.97
2022-09-28T20:53:47.230Z,97692.44
2022-09-28T20:56:16.451Z,97690.94
2022-09-28T20:58:42.927Z,97699.97
2022-09-28T21:01:10.820Z,97708.03
2022-09-28T21:03:38.044Z,97701.16
2022-09-28T21:06:10.040Z,97707.56
2022-09-28T21:08:38.485Z,97701.72
2022-09-28T21:11:04.944Z,97717.84
2022-09-28T21:13:31.356Z,97712.69
2022-09-28T21:16:01.090Z,97721.72
2022-09-28T21:18:27.516Z,97719.28
2022-09-28T21:20:54.004Z,97719.38
2022-09-28T21:23:24.549Z,97728.16
2022-09-28T21:26:00.336Z,97727.34
2022-09-28T21:28:26.741Z,97732.69
2022-09-28T21:30:53.461Z,97731.97
2022-09-28T21:33:19.890Z,97733.84
2022-09-28T21:35:46.325Z,97747.78
2022-09-28T21:38:12.730Z,97743.31
2022-09-28T21:40:39.209Z,97746.06
2022-09-28T21:43:05.662Z,97744.34
2022-09-28T21:45:32.246Z,97745.38
2022-09-28T21:47:59.103Z,97749.91
2022-09-28T21:50:26.359Z,97750.84
2022-09-28T21:52:53.888Z,97752.72
2022-09-28T21:55:21.257Z,97747.56
2022-09-28T21:57:48.729Z,97748.47
2022-09-28T22:00:16.332Z,97752.88
2022-09-28T22:02:43.628Z,97747.72
2022-09-28T22:05:10.977Z,97752.03
2022-09-28T22:07:38.827Z,97756.56
2022-09-28T22:10:06.133Z,97756.00
2022-09-28T22:12:32.598Z,97754.34
2022-09-28T22:14:59.054Z,97763.28
2022-09-28T22:17:25.489Z,97751.94
2022-09-28T22:19:51.959Z,97756.31
2022-09-28T22:22:18.363Z,97759.13
2022-09-28T22:24:44.803Z,97757.47
2022-09-28T22:27:11.428Z,97753.00
2022-09-28T22:29:37.857Z,97752.38
2022-09-28T22:32:04.311Z,97755.91
2022-09-28T22:34:31.850Z,97761.47
2022-09-28T22:36:58.872Z,97754.56
2022-09-28T22:39:25.653Z,97759.00
2022-09-28T22:41:52.638Z,97760.81
2022-09-28T22:44:19.762Z,97764.50
2022-09-28T22:46:46.756Z,97760.66
2022-09-28T22:49:13.347Z,97765.13
2022-09-28T22:51:40.375Z,97770.53
2022-09-28T22:54:07.216Z,97765.22
2022-09-28T22:56:33.647Z,97767.88
2022-09-28T22:59:00.042Z,97767.88
2022-09-28T23:01:28.277Z,97770.59
2022-09-28T23:03:55.563Z,97765.44
2022-09-28T23:06:23.389Z,97767.28
2022-09-28T23:08:50.487Z,97775.50
2022-09-28T23:11:17.329Z,97775.78
2022-09-28T23:13:48.182Z,97773.44
2022-09-28T23:16:15.062Z,97779.72
2022-09-28T23:18:41.749Z,97785.16
2022-09-28T23:21:12.323Z,97787.00
2022-09-28T23:23:39.179Z,97777.34
2022-09-28T23:26:22.297Z,97787.16
2022-09-28T23:28:48.838Z,97781.13
2022-09-28T23:31:17.040Z,97791.84
2022-09-28T23:33:43.545Z,97797.25
2022-09-28T23:36:10.501Z,97791.97
2022-09-28T23:38:37.028Z,97797.38
2022-09-28T23:41:03.518Z,97798.38
2022-09-28T23:43:30.011Z,97794.00
2022-09-28T23:45:56.399Z,97788.69
2022-09-28T23:48:22.868Z,97794.94
2022-09-28T23:50:49.329Z,97796.81
2022-09-28T23:53:15.838Z,97801.16
2022-09-28T23:55:43.136Z,97802.13
2022-09-28T23:58:10.392Z,97795.16
